Time;durP1;ratioP1;P1;durP2;ratioP2;P2;SDS_P1;SDS_P2;PMS_P1;PMS_P2;Temp;Humidity;BMP_temperature;BMP_pressure;BME280_temperature;BME280_humidity;BME280_pressure;Samples;Min_cycle;Max_cycle;Signal;HPM_P1;HPM_P2
2023/01/02 00:01:17;;;;;;;6.73;4.60;;;3.60;84.30;;;;;;5019057;28;20192;-62
2023/01/02 00:03:42;;;;;;;8.73;4.83;;;3.60;84.40;;;;;;5040078;28;20184;-62
2023/01/02 00:06:08;;;;;;;6.63;4.13;;;3.60;84.30;;;;;;5001754;28;20250;-62
2023/01/02 00:08:34;;;;;;;8.03;5.57;;;3.60;84.10;;;;;;5023020;28;20211;-62
2023/01/02 00:10:59;;;;;;;8.23;5.10;;;3.60;83.90;;;;;;5029344;28;20207;-62
2023/01/02 00:13:25;;;;;;;8.27;5.17;;;3.50;84.00;;;;;;5017321;28;20186;-62
2023/01/02 00:15:51;;;;;;;7.70;5.23;;;3.50;84.10;;;;;;5030073;28;20238;-62
2023/01/02 00:18:16;;;;;;;7.07;5.20;;;3.50;84.10;;;;;;5018462;28;20187;-62
2023/01/02 00:20:42;;;;;;;6.87;5.27;;;3.50;84.20;;;;;;5018014;28;20238;-62
2023/01/02 00:23:08;;;;;;;7.93;5.10;;;3.50;84.40;;;;;;5030734;28;20207;-62
2023/01/02 00:25:34;;;;;;;6.23;4.80;;;3.50;84.30;;;;;;5045289;28;20197;-62
2023/01/02 00:28:00;;;;;;;7.67;4.57;;;3.50;84.30;;;;;;5026449;28;20195;-62
2023/01/02 00:30:26;;;;;;;6.93;4.40;;;3.50;84.30;;;;;;5000797;28;20484;-62
2023/01/02 00:32:51;;;;;;;5.77;4.77;;;3.50;84.20;;;;;;5022904;28;20214;-62
2023/01/02 00:35:17;;;;;;;8.03;4.97;;;3.40;84.30;;;;;;5015917;28;20190;-62
2023/01/02 00:37:43;;;;;;;6.20;4.70;;;3.30;84.30;;;;;;5016985;28;20215;-62
2023/01/02 00:40:12;;;;;;;6.33;4.63;;;3.30;84.30;;;;;;5035276;28;20204;-62
2023/01/02 00:42:41;;;;;;;6.87;5.00;;;3.10;84.70;;;;;;5023256;28;20322;-63
2023/01/02 00:45:08;;;;;;;5.30;4.50;;;3.10;84.50;;;;;;5044282;28;20459;-62
2023/01/02 00:47:35;;;;;;;6.00;4.40;;;3.20;84.50;;;;;;5028787;28;20442;-62
2023/01/02 00:50:00;;;;;;;8.27;4.73;;;3.20;84.50;;;;;;5023130;28;21310;-62
2023/01/02 00:52:26;;;;;;;6.53;4.63;;;3.10;84.70;;;;;;5028844;28;20437;-62
2023/01/02 00:54:52;;;;;;;5.20;4.40;;;3.20;85.20;;;;;;5013494;28;20245;-62
2023/01/02 00:57:18;;;;;;;6.07;4.23;;;3.20;85.00;;;;;;5026943;28;20307;-62
2023/01/02 00:59:43;;;;;;;8.57;4.50;;;3.20;85.00;;;;;;5030595;28;20190;-62
2023/01/02 01:02:09;;;;;;;6.73;4.57;;;3.30;85.30;;;;;;5012249;28;20199;-62
2023/01/02 01:04:35;;;;;;;6.30;4.60;;;3.20;85.10;;;;;;5017672;28;20195;-62
2023/01/02 01:07:01;;;;;;;6.33;4.40;;;3.20;85.00;;;;;;5016450;28;20330;-62
2023/01/02 01:09:27;;;;;;;7.33;4.43;;;3.20;85.10;;;;;;5020951;28;20537;-62
2023/01/02 01:11:52;;;;;;;6.67;4.23;;;3.20;85.00;;;;;;5013333;28;20178;-62
2023/01/02 01:14:18;;;;;;;5.73;4.70;;;3.20;84.90;;;;;;5020273;28;20266;-63
2023/01/02 01:16:44;;;;;;;5.23;4.33;;;3.20;85.10;;;;;;5025135;28;20199;-62
2023/01/02 01:19:10;;;;;;;6.53;4.60;;;3.10;85.10;;;;;;5017196;28;20183;-62
2023/01/02 01:21:36;;;;;;;6.67;4.63;;;3.10;85.10;;;;;;5021488;28;20198;-62
2023/01/02 01:24:01;;;;;;;7.03;4.47;;;3.10;85.00;;;;;;5026647;28;20183;-63
2023/01/02 01:26:27;;;;;;;6.43;4.50;;;3.10;85.20;;;;;;5028403;28;20183;-62
2023/01/02 01:28:54;;;;;;;7.97;5.10;;;3.10;85.20;;;;;;5031554;28;20190;-62
2023/01/02 01:31:21;;;;;;;6.63;4.50;;;3.10;85.00;;;;;;5034841;28;20210;-62
2023/01/02 01:33:47;;;;;;;5.77;4.10;;;3.10;85.00;;;;;;5029278;28;20453;-62
2023/01/02 01:36:16;;;;;;;7.70;4.80;;;3.10;85.00;;;;;;5010643;28;20430;-62
2023/01/02 01:38:42;;;;;;;8.40;5.13;;;3.10;84.90;;;;;;5035871;28;20178;-62
2023/01/02 01:41:10;;;;;;;7.60;4.70;;;3.00;84.80;;;;;;5029899;28;20434;-62
2023/01/02 01:43:38;;;;;;;6.23;4.67;;;3.00;84.90;;;;;;5015707;28;20435;-63
2023/01/02 01:46:20;;;;;;;6.43;4.20;;;3.00;85.10;;;;;;5034679;28;20434;-62
2023/01/02 01:48:51;;;;;;;6.53;3.83;;;3.00;85.20;;;;;;5025072;28;20429;-62
2023/01/02 01:51:19;;;;;;;6.07;4.60;;;3.00;85.40;;;;;;5035116;28;20529;-62
2023/01/02 01:53:49;;;;;;;9.00;4.73;;;3.00;85.80;;;;;;5029127;28;20416;-62
2023/01/02 01:56:16;;;;;;;11.20;5.33;;;3.00;85.40;;;;;;5025312;28;20549;-62
2023/01/02 01:58:44;;;;;;;7.63;4.87;;;3.00;85.50;;;;;;4999663;28;20426;-62
2023/01/02 02:01:12;;;;;;;7.63;4.93;;;3.10;85.70;;;;;;5024207;28;20536;-62
2023/01/02 02:03:41;;;;;;;8.80;5.40;;;3.10;85.70;;;;;;5024427;28;20492;-62
2023/01/02 02:06:08;;;;;;;5.37;4.63;;;3.10;86.00;;;;;;5042586;28;20545;-62
2023/01/02 02:08:43;;;;;;;6.73;4.60;;;3.10;85.90;;;;;;5012205;28;20429;-62
2023/01/02 02:11:12;;;;;;;6.27;4.47;;;3.10;86.00;;;;;;5020854;28;20461;-62
2023/01/02 02:13:37;;;;;;;6.17;5.03;;;3.10;85.90;;;;;;5026049;28;20864;-62
2023/01/02 02:16:16;;;;;;;5.43;4.00;;;3.10;85.70;;;;;;5006300;28;20418;-63
2023/01/02 02:19:02;;;;;;;5.87;3.83;;;3.10;85.50;;;;;;5041536;28;20179;-63
2023/01/02 02:22:22;;;;;;;7.33;4.83;;;3.10;85.30;;;;;;5018595;28;20537;-62
2023/01/02 02:25:02;;;;;;;7.40;4.80;;;3.10;85.60;;;;;;5012765;28;20453;-62
2023/01/02 02:27:28;;;;;;;6.13;4.63;;;3.00;85.80;;;;;;5021300;28;20430;-62
2023/01/02 02:30:06;;;;;;;6.67;4.77;;;3.00;85.70;;;;;;5031157;28;20465;-62
2023/01/02 02:32:54;;;;;;;8.67;4.57;;;3.00;85.70;;;;;;5030959;28;20179;-62
2023/01/02 02:35:23;;;;;;;7.27;4.87;;;3.00;85.60;;;;;;5025825;28;20423;-63
2023/01/02 02:37:55;;;;;;;6.70;4.87;;;3.00;86.40;;;;;;5032796;28;20432;-62
2023/01/02 02:40:41;;;;;;;6.50;4.83;;;2.90;85.50;;;;;;5035846;28;20497;-63
2023/01/02 02:43:07;;;;;;;6.93;4.77;;;2.90;85.40;;;;;;5012470;28;20438;-62
2023/01/02 02:45:41;;;;;;;7.23;4.30;;;2.80;85.40;;;;;;5028889;28;20440;-62
2023/01/02 02:48:21;;;;;;;6.10;4.00;;;2.80;85.40;;;;;;5031953;28;20194;-62
2023/01/02 02:51:04;;;;;;;6.97;4.70;;;2.80;85.40;;;;;;5031621;28;20454;-62
2023/01/02 02:53:41;;;;;;;5.67;4.33;;;2.80;85.40;;;;;;5030363;28;20438;-62
2023/01/02 02:56:10;;;;;;;7.67;4.03;;;2.70;85.70;;;;;;5018199;28;20422;-62
2023/01/02 02:58:37;;;;;;;6.33;4.60;;;2.70;85.70;;;;;;5038795;28;20460;-63
2023/01/02 03:01:16;;;;;;;5.40;4.43;;;2.70;85.80;;;;;;5023067;28;20448;-63
2023/01/02 03:03:42;;;;;;;7.20;4.57;;;2.70;85.90;;;;;;5039942;28;20506;-62
2023/01/02 03:06:19;;;;;;;7.03;4.40;;;2.70;85.80;;;;;;5028619;28;20474;-63
2023/01/02 03:09:28;;;;;;;7.63;5.37;;;2.70;85.80;;;;;;5025868;28;20436;-63
2023/01/02 03:12:06;;;;;;;7.53;5.00;;;2.70;86.80;;;;;;5019977;28;20450;-62
2023/01/02 03:14:41;;;;;;;5.03;4.20;;;2.80;86.90;;;;;;5014767;28;20462;-62
2023/01/02 03:17:18;;;;;;;4.80;3.67;;;2.80;86.60;;;;;;5020747;28;20439;-63
2023/01/02 03:19:48;;;;;;;5.07;4.13;;;2.80;86.70;;;;;;5026059;28;20465;-62
2023/01/02 03:22:19;;;;;;;6.10;4.67;;;2.90;86.60;;;;;;5020148;28;20509;-63
2023/01/02 03:24:49;;;;;;;6.87;4.00;;;2.90;87.20;;;;;;5013798;28;20431;-62
2023/01/02 03:27:21;;;;;;;6.00;4.17;;;3.00;87.00;;;;;;5035025;28;20453;-62
2023/01/02 03:29:53;;;;;;;6.00;4.60;;;3.00;86.90;;;;;;5028505;28;20466;-62
2023/01/02 03:32:42;;;;;;;6.33;5.17;;;3.10;87.80;;;;;;5019247;28;20427;-63
2023/01/02 03:35:14;;;;;;;6.30;4.27;;;3.10;87.30;;;;;;5032823;28;20517;-62
2023/01/02 03:37:45;;;;;;;6.03;4.53;;;3.10;86.90;;;;;;5022277;28;20426;-62
2023/01/02 03:40:20;;;;;;;7.73;4.20;;;3.10;86.90;;;;;;5022430;28;20468;-62
2023/01/02 03:42:58;;;;;;;4.40;4.00;;;3.10;86.60;;;;;;5029657;28;20434;-62
2023/01/02 03:45:30;;;;;;;6.63;4.50;;;3.10;86.40;;;;;;5042860;28;20436;-63
2023/01/02 03:48:30;;;;;;;5.63;4.40;;;3.10;86.60;;;;;;5038721;28;20444;-63
2023/01/02 03:50:58;;;;;;;5.87;4.10;;;3.10;86.70;;;;;;5012757;28;20473;-63
2023/01/02 03:53:24;;;;;;;5.73;4.33;;;3.10;86.40;;;;;;5003983;28;20430;-62
2023/01/02 03:56:10;;;;;;;6.10;4.27;;;3.10;86.60;;;;;;5023239;28;20465;-62
2023/01/02 03:58:56;;;;;;;7.33;4.60;;;3.10;86.30;;;;;;5034462;28;20519;-62
2023/01/02 04:01:33;;;;;;;6.67;4.20;;;3.10;86.40;;;;;;5021785;28;20433;-62
2023/01/02 04:04:16;;;;;;;7.83;4.47;;;3.10;86.60;;;;;;5014980;28;20429;-62
2023/01/02 04:06:47;;;;;;;5.70;4.20;;;3.10;86.60;;;;;;5028511;28;20482;-62
2023/01/02 04:09:21;;;;;;;5.90;4.43;;;3.20;86.50;;;;;;5029556;28;20436;-62
2023/01/02 04:11:55;;;;;;;7.40;4.17;;;3.10;86.10;;;;;;5025418;28;20481;-62
2023/01/02 04:14:54;;;;;;;6.13;4.50;;;3.10;86.00;;;;;;5015145;28;20458;-62
2023/01/02 04:17:23;;;;;;;5.13;4.30;;;3.10;86.10;;;;;;5039467;28;20428;-63
2023/01/02 04:20:02;;;;;;;8.17;4.30;;;3.10;86.20;;;;;;5029067;28;20525;-62
2023/01/02 04:22:33;;;;;;;7.50;4.60;;;3.10;86.90;;;;;;5023760;28;20449;-62
2023/01/02 04:25:09;;;;;;;5.43;4.00;;;3.20;86.80;;;;;;5034552;28;20460;-62
2023/01/02 04:27:54;;;;;;;6.23;4.23;;;3.20;86.50;;;;;;5023592;28;20440;-62
2023/01/02 04:30:20;;;;;;;9.40;4.30;;;3.30;87.20;;;;;;5019636;28;20461;-62
2023/01/02 04:32:47;;;;;;;5.37;4.20;;;3.30;86.40;;;;;;5013235;28;20488;-62
2023/01/02 04:35:20;;;;;;;8.97;4.80;;;3.20;85.90;;;;;;5023913;28;20188;-62
2023/01/02 04:37:47;;;;;;;6.40;4.43;;;3.10;85.30;;;;;;5024355;28;20422;-62
2023/01/02 04:40:24;;;;;;;6.03;4.47;;;3.10;85.50;;;;;;5025304;28;20537;-63
2023/01/02 04:42:50;;;;;;;5.83;4.67;;;3.00;85.00;;;;;;5031975;28;20441;-62
2023/01/02 04:45:16;;;;;;;6.63;5.17;;;2.90;84.80;;;;;;5019008;28;20446;-62
2023/01/02 04:47:42;;;;;;;6.07;4.67;;;2.80;84.60;;;;;;5025944;28;20191;-62
2023/01/02 04:50:09;;;;;;;7.17;4.57;;;2.70;84.80;;;;;;5016117;28;20235;-62
2023/01/02 04:52:34;;;;;;;5.23;4.40;;;2.70;84.30;;;;;;5013379;28;20176;-62
2023/01/02 04:55:00;;;;;;;6.67;4.60;;;2.60;85.40;;;;;;5024953;28;20443;-62
2023/01/02 04:57:26;;;;;;;6.20;4.70;;;2.60;85.30;;;;;;5016399;28;20196;-62
2023/01/02 04:59:51;;;;;;;8.13;4.60;;;2.60;85.40;;;;;;5021450;28;20233;-62
2023/01/02 05:02:17;;;;;;;9.47;4.93;;;2.50;85.80;;;;;;5018373;28;20196;-62
2023/01/02 05:04:43;;;;;;;5.73;4.47;;;2.50;85.40;;;;;;5020379;28;20187;-62
2023/01/02 05:07:08;;;;;;;5.97;4.53;;;2.50;85.20;;;;;;5017448;28;20295;-63
2023/01/02 05:09:34;;;;;;;5.47;4.13;;;2.40;84.80;;;;;;5012417;28;20291;-62
2023/01/02 05:12:00;;;;;;;4.37;3.77;;;2.40;85.20;;;;;;5006620;28;20191;-62
2023/01/02 05:14:26;;;;;;;5.93;4.77;;;2.30;85.10;;;;;;5023476;28;20187;-62
2023/01/02 05:16:51;;;;;;;5.10;3.93;;;2.30;84.90;;;;;;5022429;28;20198;-62
2023/01/02 05:19:17;;;;;;;5.63;3.90;;;2.30;85.00;;;;;;5015949;28;20430;-62
2023/01/02 05:24:37;;;;;;;4.83;3.70;;;2.20;85.00;;;;;;5044548;28;20240;-62
2023/01/02 05:27:03;;;;;;;6.80;4.00;;;2.10;85.00;;;;;;5022581;28;20419;-62
2023/01/02 05:29:28;;;;;;;5.43;4.20;;;2.00;85.10;;;;;;5004582;28;20250;-62
2023/01/02 05:31:54;;;;;;;5.87;4.73;;;2.00;85.10;;;;;;5012356;28;20269;-62
2023/01/02 05:34:20;;;;;;;5.47;4.10;;;1.90;85.70;;;;;;5024743;28;20184;-62
2023/01/02 05:36:46;;;;;;;9.00;4.50;;;1.90;85.40;;;;;;5004179;28;20261;-62
2023/01/02 05:39:13;;;;;;;5.33;4.00;;;1.90;85.60;;;;;;5035097;28;20191;-62
2023/01/02 05:41:39;;;;;;;5.97;3.93;;;1.90;85.80;;;;;;5019661;28;20207;-62
2023/01/02 05:44:09;;;;;;;4.80;4.07;;;1.90;85.70;;;;;;5029428;28;20432;-62
2023/01/02 05:46:36;;;;;;;6.07;4.37;;;1.80;86.10;;;;;;5028911;28;20413;-62
2023/01/02 05:49:06;;;;;;;5.00;4.07;;;1.80;86.40;;;;;;5038763;28;20422;-63
2023/01/02 05:51:32;;;;;;;6.00;4.00;;;1.80;86.40;;;;;;5039251;28;20458;-62
2023/01/02 05:53:58;;;;;;;5.07;3.70;;;1.90;86.30;;;;;;5012274;28;20446;-62
2023/01/02 05:56:26;;;;;;;6.43;4.60;;;1.80;86.60;;;;;;5018458;28;20419;-62
2023/01/02 05:58:52;;;;;;;7.40;4.73;;;1.80;87.00;;;;;;5039305;28;20183;-62
2023/01/02 06:01:26;;;;;;;7.70;3.90;;;1.80;86.90;;;;;;5009964;28;20437;-62
2023/01/02 06:03:56;;;;;;;5.20;4.10;;;1.80;86.60;;;;;;5022927;28;20431;-62
2023/01/02 06:06:29;;;;;;;5.33;3.83;;;1.70;86.60;;;;;;5033953;28;20492;-62
2023/01/02 06:08:55;;;;;;;6.33;3.90;;;1.70;86.60;;;;;;5033061;28;20426;-62
2023/01/02 06:11:21;;;;;;;6.00;4.57;;;1.70;86.50;;;;;;5023659;28;20458;-62
2023/01/02 06:13:46;;;;;;;7.97;4.67;;;1.70;86.70;;;;;;5021911;28;20249;-62
2023/01/02 06:16:12;;;;;;;6.70;4.60;;;1.70;86.70;;;;;;5016552;28;20222;-62
2023/01/02 06:18:39;;;;;;;6.87;4.60;;;1.70;86.70;;;;;;5027422;28;20195;-62
2023/01/02 06:21:08;;;;;;;6.57;4.67;;;1.70;86.70;;;;;;5020989;28;20194;-62
2023/01/02 06:23:34;;;;;;;6.80;4.60;;;1.70;86.60;;;;;;5027095;28;20464;-62
2023/01/02 06:26:19;;;;;;;6.23;3.53;;;1.60;86.60;;;;;;5031661;28;20422;-62
2023/01/02 06:28:48;;;;;;;7.43;4.50;;;1.60;86.60;;;;;;5033240;28;20204;-62
2023/01/02 06:31:16;;;;;;;5.77;4.00;;;1.60;86.60;;;;;;5026255;28;20481;-62
2023/01/02 06:33:42;;;;;;;6.87;4.13;;;1.60;86.40;;;;;;5022428;28;20445;-62
2023/01/02 06:36:12;;;;;;;5.23;4.37;;;1.60;86.40;;;;;;5030921;28;20465;-62
2023/01/02 06:38:38;;;;;;;5.20;3.40;;;1.60;86.60;;;;;;5014892;28;20429;-62
2023/01/02 06:41:05;;;;;;;5.93;4.27;;;1.60;86.60;;;;;;5022685;28;20487;-64
2023/01/02 06:43:31;;;;;;;6.43;4.40;;;1.70;86.70;;;;;;5038984;28;20267;-64
2023/01/02 06:46:01;;;;;;;5.67;3.87;;;1.80;87.30;;;;;;5024097;28;21052;-65
2023/01/02 06:48:27;;;;;;;6.30;4.37;;;1.80;87.00;;;;;;5020090;28;20430;-65
2023/01/02 06:50:53;;;;;;;6.50;4.23;;;1.80;86.80;;;;;;5020684;28;20526;-65
2023/01/02 06:53:19;;;;;;;7.07;4.97;;;1.90;86.40;;;;;;5020643;28;20278;-65
2023/01/02 06:55:53;;;;;;;7.60;5.43;;;1.80;86.10;;;;;;5023962;28;20517;-64
2023/01/02 06:58:19;;;;;;;5.63;4.53;;;1.80;86.20;;;;;;5034907;28;20445;-64
2023/01/02 07:00:46;;;;;;;7.87;5.10;;;1.80;86.70;;;;;;5032414;28;20530;-64
2023/01/02 07:03:12;;;;;;;10.93;6.17;;;1.90;86.60;;;;;;5030450;28;20530;-65
2023/01/02 07:05:37;;;;;;;6.77;5.03;;;1.90;86.30;;;;;;5024960;28;20446;-65
2023/01/02 07:08:03;;;;;;;8.63;5.63;;;1.90;86.20;;;;;;5025635;28;20501;-65
2023/01/02 07:10:29;;;;;;;6.67;4.50;;;1.90;86.10;;;;;;5023123;28;20298;-64
2023/01/02 07:12:55;;;;;;;8.33;4.83;;;1.90;86.60;;;;;;5019314;28;20196;-64
2023/01/02 07:15:20;;;;;;;8.03;5.40;;;1.90;86.30;;;;;;5010541;28;20188;-65
2023/01/02 07:17:46;;;;;;;6.77;4.40;;;2.00;86.60;;;;;;5009903;28;20194;-65
2023/01/02 07:20:12;;;;;;;10.40;6.20;;;2.00;86.70;;;;;;5022737;28;20219;-65
2023/01/02 07:22:38;;;;;;;6.80;4.47;;;2.00;86.60;;;;;;5013605;28;20286;-62
2023/01/02 07:25:04;;;;;;;6.43;4.07;;;2.10;86.60;;;;;;5019466;28;20241;-62
2023/01/02 07:27:30;;;;;;;7.47;4.50;;;2.10;86.60;;;;;;5018104;28;20204;-62
2023/01/02 07:29:56;;;;;;;4.77;4.00;;;2.20;87.00;;;;;;5022848;28;20488;-64
2023/01/02 07:32:22;;;;;;;4.60;3.60;;;2.30;87.70;;;;;;5025813;28;20418;-62
2023/01/02 07:34:48;;;;;;;5.50;3.60;;;2.40;87.40;;;;;;5021102;28;20438;-62
2023/01/02 07:37:14;;;;;;;6.43;4.57;;;2.50;87.70;;;;;;5019042;28;20423;-62
2023/01/02 07:39:39;;;;;;;6.30;4.13;;;2.50;88.40;;;;;;4964556;28;20247;-65
2023/01/02 07:42:05;;;;;;;5.67;4.33;;;2.50;87.80;;;;;;4997884;28;20193;-64
2023/01/02 07:44:31;;;;;;;6.17;4.60;;;2.60;87.50;;;;;;5015740;28;20188;-65
2023/01/02 07:46:57;;;;;;;7.00;4.60;;;2.60;86.90;;;;;;4982555;28;20196;-65
2023/01/02 07:49:22;;;;;;;6.00;4.63;;;2.60;86.70;;;;;;5004506;28;20196;-65
2023/01/02 07:51:48;;;;;;;5.90;3.97;;;2.60;87.00;;;;;;5010435;28;20203;-65
2023/01/02 07:54:14;;;;;;;5.60;4.40;;;2.60;86.80;;;;;;5013306;28;20184;-65
2023/01/02 07:56:39;;;;;;;7.27;4.33;;;2.70;86.60;;;;;;5021274;28;20191;-65
2023/01/02 07:59:05;;;;;;;6.30;4.00;;;2.60;86.50;;;;;;5011432;28;20216;-66
2023/01/02 08:01:31;;;;;;;4.93;4.00;;;2.60;87.20;;;;;;5009485;28;20195;-65
2023/01/02 08:03:56;;;;;;;5.97;4.67;;;2.70;87.00;;;;;;5007908;28;20200;-66
2023/01/02 08:06:22;;;;;;;7.17;4.80;;;2.70;86.90;;;;;;4995185;28;20250;-65
2023/01/02 08:08:48;;;;;;;5.20;3.97;;;2.80;86.90;;;;;;4993623;28;20212;-66
2023/01/02 08:11:16;;;;;;;6.20;4.40;;;2.80;86.70;;;;;;5012494;28;20239;-65
2023/01/02 08:13:43;;;;;;;5.60;4.17;;;2.80;86.40;;;;;;5009688;28;20188;-65
2023/01/02 08:16:11;;;;;;;7.23;5.00;;;2.70;86.30;;;;;;5011219;28;20492;-65
2023/01/02 08:18:37;;;;;;;6.47;5.33;;;2.70;86.40;;;;;;5016256;28;20490;-65
2023/01/02 08:21:04;;;;;;;8.97;4.97;;;2.70;86.30;;;;;;5006232;28;20925;-65
2023/01/02 08:23:30;;;;;;;7.20;4.87;;;2.70;86.30;;;;;;5006347;28;20246;-64
2023/01/02 08:25:57;;;;;;;6.93;4.97;;;2.70;86.40;;;;;;5006309;28;20433;-65
2023/01/02 08:28:23;;;;;;;6.20;5.00;;;2.70;86.60;;;;;;5015356;28;20477;-63
2023/01/02 08:30:49;;;;;;;7.23;5.43;;;2.80;86.50;;;;;;5011235;28;20474;-67
2023/01/02 08:33:15;;;;;;;7.03;4.80;;;2.80;86.60;;;;;;4996724;28;20192;-66
2023/01/02 08:35:40;;;;;;;6.83;4.73;;;2.80;86.70;;;;;;5002444;28;20192;-63
2023/01/02 08:38:06;;;;;;;6.97;5.23;;;2.90;87.10;;;;;;5007531;28;20185;-64
2023/01/02 08:40:32;;;;;;;8.13;5.87;;;2.90;87.10;;;;;;5016385;28;20227;-63
2023/01/02 08:42:57;;;;;;;4.87;4.33;;;3.00;87.20;;;;;;5016291;28;20194;-63
2023/01/02 08:45:23;;;;;;;7.50;5.60;;;3.00;87.10;;;;;;4997429;28;20241;-63
2023/01/02 08:47:49;;;;;;;6.43;4.93;;;3.00;86.90;;;;;;4983613;28;20193;-63
2023/01/02 08:50:15;;;;;;;8.17;5.50;;;3.10;87.10;;;;;;4997509;28;20302;-63
2023/01/02 08:52:40;;;;;;;6.37;4.93;;;3.10;87.10;;;;;;5012892;28;20662;-64
2023/01/02 08:55:06;;;;;;;8.83;5.33;;;3.10;87.10;;;;;;5013663;28;20271;-63
2023/01/02 08:57:32;;;;;;;7.47;4.90;;;3.20;87.20;;;;;;4988274;28;20196;-63
2023/01/02 08:59:58;;;;;;;7.47;4.60;;;3.30;87.40;;;;;;5013073;28;20545;-63
2023/01/02 09:02:24;;;;;;;5.17;4.30;;;3.30;87.40;;;;;;4999881;28;20199;-63
2023/01/02 09:04:49;;;;;;;6.17;4.77;;;3.50;87.60;;;;;;5014921;28;20294;-65
2023/01/02 09:07:15;;;;;;;7.40;4.90;;;3.50;87.30;;;;;;4981073;28;20326;-65
2023/01/02 09:09:41;;;;;;;7.43;5.17;;;3.60;87.60;;;;;;5001696;28;20212;-64
2023/01/02 09:12:06;;;;;;;7.00;4.40;;;3.70;87.30;;;;;;4994350;28;20192;-64
2023/01/02 09:14:32;;;;;;;7.60;5.00;;;3.80;87.10;;;;;;4993014;28;20256;-64
2023/01/02 09:16:58;;;;;;;8.57;4.37;;;3.90;86.90;;;;;;4996814;28;20196;-64
2023/01/02 09:19:25;;;;;;;6.53;4.70;;;4.00;86.70;;;;;;4987595;28;20264;-64
2023/01/02 09:21:51;;;;;;;8.27;5.90;;;4.00;86.70;;;;;;5003573;28;20202;-64
2023/01/02 09:24:17;;;;;;;6.63;4.53;;;4.10;86.50;;;;;;4998160;28;20422;-62
2023/01/02 09:26:43;;;;;;;6.90;4.40;;;4.20;86.30;;;;;;5013199;28;20181;-62
2023/01/02 09:29:10;;;;;;;8.57;5.47;;;4.30;86.10;;;;;;5013900;28;20266;-62
2023/01/02 09:31:35;;;;;;;7.93;4.77;;;4.40;85.80;;;;;;5001899;28;20260;-62
2023/01/02 09:34:01;;;;;;;7.13;5.03;;;4.60;84.70;;;;;;5014060;28;20887;-62
2023/01/02 09:36:27;;;;;;;6.53;5.00;;;4.70;84.60;;;;;;5002160;28;20195;-62
2023/01/02 09:38:58;;;;;;;6.73;4.93;;;4.90;83.30;;;;;;5014610;28;20439;-61
2023/01/02 09:41:56;;;;;;;5.93;4.47;;;5.10;81.40;;;;;;5009961;28;20215;-62
2023/01/02 09:44:31;;;;;;;7.87;4.60;;;5.30;80.80;;;;;;5012234;28;20462;-62
2023/01/02 09:47:20;;;;;;;6.93;4.67;;;5.50;79.70;;;;;;5012423;28;20440;-62
2023/01/02 09:49:51;;;;;;;7.03;4.53;;;5.50;78.80;;;;;;5010901;28;20969;-61
2023/01/02 09:52:38;;;;;;;5.93;4.43;;;5.80;78.10;;;;;;5021071;28;20446;-62
2023/01/02 09:55:42;;;;;;;5.43;4.30;;;5.80;78.10;;;;;;5011058;28;20995;-62
2023/01/02 09:58:33;;;;;;;5.67;4.20;;;5.90;77.70;;;;;;4990294;28;20431;-61
2023/01/02 10:00:59;;;;;;;5.90;4.20;;;6.00;76.40;;;;;;5012617;28;20486;-64
2023/01/02 10:04:08;;;;;;;6.90;4.40;;;6.20;76.20;;;;;;5009625;28;20408;-64
2023/01/02 10:06:52;;;;;;;6.97;4.20;;;6.30;75.60;;;;;;5000454;28;20233;-65
2023/01/02 10:09:38;;;;;;;6.33;4.20;;;6.40;75.40;;;;;;5012710;28;20457;-64
2023/01/02 10:12:18;;;;;;;6.00;4.43;;;6.50;74.50;;;;;;5009670;28;20510;-65
2023/01/02 10:14:52;;;;;;;4.60;3.90;;;6.50;74.80;;;;;;5006160;28;20445;-65
2023/01/02 10:17:18;;;;;;;6.00;4.20;;;6.60;74.20;;;;;;5003558;28;20415;-65
2023/01/02 10:19:50;;;;;;;6.00;4.23;;;6.80;73.40;;;;;;5012359;28;20934;-64
2023/01/02 10:22:38;;;;;;;7.00;4.53;;;6.90;72.90;;;;;;5010151;28;20423;-65
2023/01/02 10:25:17;;;;;;;4.93;3.73;;;6.90;73.20;;;;;;5008639;28;20429;-65
2023/01/02 10:28:15;;;;;;;4.93;3.83;;;7.00;73.30;;;;;;5016057;28;20427;-65
2023/01/02 10:30:49;;;;;;;6.77;4.03;;;7.20;72.10;;;;;;5010800;28;20497;-64
2023/01/02 10:33:31;;;;;;;5.27;4.27;;;7.30;71.70;;;;;;5007403;28;20424;-64
2023/01/02 10:36:00;;;;;;;7.60;4.03;;;7.30;71.80;;;;;;5017753;28;20409;-64
2023/01/02 10:38:35;;;;;;;7.37;4.53;;;7.40;71.70;;;;;;5001222;28;20431;-65
2023/01/02 10:41:02;;;;;;;5.63;4.27;;;7.50;71.70;;;;;;5000881;28;20422;-65
2023/01/02 10:43:29;;;;;;;6.10;3.40;;;7.50;71.40;;;;;;5021338;28;20448;-64
2023/01/02 10:45:55;;;;;;;6.97;4.20;;;7.60;70.00;;;;;;5014928;28;20494;-64
2023/01/02 10:48:25;;;;;;;5.30;4.13;;;7.80;69.60;;;;;;4997936;28;20467;-64
2023/01/02 10:50:55;;;;;;;5.53;3.80;;;7.80;69.70;;;;;;4993621;28;20467;-64
2023/01/02 10:53:36;;;;;;;5.37;3.60;;;7.90;69.50;;;;;;5009753;28;20188;-63
2023/01/02 10:56:19;;;;;;;4.60;3.37;;;8.00;69.10;;;;;;5009871;28;20195;-63
2023/01/02 10:58:47;;;;;;;5.60;3.80;;;8.10;68.90;;;;;;4994571;28;20242;-62
2023/01/02 11:01:17;;;;;;;7.40;3.93;;;8.10;68.50;;;;;;5011955;28;20189;-62
2023/01/02 11:03:45;;;;;;;4.57;3.40;;;8.20;68.80;;;;;;5003202;28;20424;-63
2023/01/02 11:06:23;;;;;;;5.57;3.23;;;8.30;68.50;;;;;;5004672;28;20239;-62
2023/01/02 11:09:14;;;;;;;4.93;3.50;;;8.50;67.60;;;;;;5022628;28;20241;-62
2023/01/02 11:11:56;;;;;;;4.43;3.23;;;8.50;67.20;;;;;;5009894;28;20219;-62
2023/01/02 11:14:31;;;;;;;4.97;3.63;;;8.60;66.90;;;;;;5013968;28;20188;-62
2023/01/02 11:17:05;;;;;;;5.57;4.10;;;8.60;67.20;;;;;;5012858;28;20188;-62
2023/01/02 11:19:51;;;;;;;3.37;2.80;;;8.80;66.20;;;;;;5012297;28;20188;-62
2023/01/02 11:22:20;;;;;;;4.20;2.80;;;8.90;65.60;;;;;;5012832;28;20184;-62
2023/01/02 11:25:01;;;;;;;5.37;4.17;;;9.00;65.40;;;;;;5002400;28;20203;-62
2023/01/02 11:27:31;;;;;;;4.33;3.37;;;9.20;64.00;;;;;;5005459;28;20183;-61
2023/01/02 11:29:57;;;;;;;3.80;2.77;;;9.30;64.00;;;;;;4994534;28;20269;-62
2023/01/02 11:32:28;;;;;;;7.03;3.47;;;9.30;64.30;;;;;;5012037;28;20214;-62
2023/01/02 11:35:03;;;;;;;4.47;3.10;;;9.40;64.10;;;;;;5011265;28;20182;-61
2023/01/02 11:37:29;;;;;;;3.63;2.87;;;9.50;63.10;;;;;;5005067;28;20191;-62
2023/01/02 11:40:06;;;;;;;4.07;3.07;;;9.60;63.10;;;;;;5009149;28;20698;-62
2023/01/02 11:45:29;;;;;;;4.93;3.33;;;9.80;63.10;;;;;;4996601;28;20191;-62
2023/01/02 11:48:01;;;;;;;4.63;3.17;;;9.90;62.70;;;;;;5001029;28;20226;-62
2023/01/02 11:50:29;;;;;;;4.20;3.40;;;10.00;63.90;;;;;;5010088;28;20240;-62
2023/01/02 11:53:13;;;;;;;5.57;2.90;;;10.00;62.10;;;;;;5020889;28;20184;-62
2023/01/02 11:55:53;;;;;;;5.17;3.33;;;10.10;61.00;;;;;;5016518;28;20210;-62
2023/01/02 11:58:44;;;;;;;6.60;3.33;;;10.20;61.40;;;;;;5000826;28;20184;-62
2023/01/02 12:01:21;;;;;;;5.27;3.57;;;10.30;61.70;;;;;;5022391;28;20187;-62
2023/01/02 12:03:47;;;;;;;3.50;2.53;;;10.40;60.70;;;;;;5012762;28;20188;-62
2023/01/02 12:06:23;;;;;;;4.43;3.43;;;10.50;59.70;;;;;;5010964;28;20255;-62
2023/01/02 12:08:51;;;;;;;5.10;3.23;;;10.60;59.80;;;;;;5013802;28;20215;-62
2023/01/02 12:11:41;;;;;;;4.60;3.10;;;10.60;59.40;;;;;;5016436;28;20212;-62
2023/01/02 12:14:22;;;;;;;4.13;3.03;;;10.70;60.00;;;;;;5013965;28;20177;-63
2023/01/02 12:17:06;;;;;;;3.27;2.80;;;10.90;59.30;;;;;;5026674;28;20190;-63
2023/01/02 12:19:54;;;;;;;4.80;3.30;;;11.00;58.70;;;;;;5030821;28;20249;-63
2023/01/02 12:22:32;;;;;;;3.93;2.90;;;11.10;58.20;;;;;;5032567;28;20198;-63
2023/01/02 12:25:21;;;;;;;4.43;3.67;;;11.10;57.90;;;;;;5010886;28;20537;-63
2023/01/02 12:28:05;;;;;;;3.93;3.07;;;11.30;57.60;;;;;;5022952;28;20196;-63
2023/01/02 12:30:35;;;;;;;4.90;3.37;;;11.40;57.30;;;;;;5027151;28;20213;-62
2023/01/02 12:33:13;;;;;;;4.43;2.97;;;11.50;56.90;;;;;;5004902;28;20180;-62
2023/01/02 12:36:26;;;;;;;4.03;3.27;;;11.50;56.30;;;;;;5018919;28;20659;-62
2023/01/02 12:39:18;;;;;;;2.87;2.50;;;11.50;57.10;;;;;;4974054;28;20195;-62
2023/01/02 12:42:14;;;;;;;3.60;3.00;;;11.70;56.70;;;;;;5007738;28;20197;-62
2023/01/02 12:44:46;;;;;;;3.27;2.67;;;11.70;56.90;;;;;;5006455;28;20223;-62
2023/01/02 12:47:42;;;;;;;4.50;2.73;;;11.80;56.40;;;;;;5020499;28;20283;-63
2023/01/02 12:50:32;;;;;;;4.40;2.90;;;11.90;55.60;;;;;;5001253;28;20200;-63
2023/01/02 12:53:32;;;;;;;3.53;2.80;;;11.90;55.70;;;;;;5013135;28;20291;-63
2023/01/02 12:56:07;;;;;;;4.73;2.80;;;12.00;56.60;;;;;;4978269;28;20201;-62
2023/01/02 12:58:47;;;;;;;3.47;2.77;;;12.10;56.70;;;;;;5017994;28;20212;-62
2023/01/02 13:01:25;;;;;;;2.50;2.07;;;12.10;57.10;;;;;;5026146;28;20191;-63
2023/01/02 13:04:20;;;;;;;6.37;3.97;;;12.20;56.70;;;;;;5011408;28;20219;-63
2023/01/02 13:07:24;;;;;;;5.97;4.37;;;12.30;56.30;;;;;;5019394;28;20231;-62
2023/01/02 13:09:52;;;;;;;11.50;8.63;;;12.50;55.80;;;;;;4984009;28;20224;-63
2023/01/02 13:12:20;;;;;;;10.43;7.40;;;12.50;56.40;;;;;;5016338;28;20186;-63
2023/01/02 13:14:59;;;;;;;9.70;6.57;;;12.60;55.90;;;;;;5011282;28;20188;-63
2023/01/02 13:17:28;;;;;;;6.67;5.30;;;12.70;56.00;;;;;;5007473;28;20192;-63
2023/01/02 13:19:57;;;;;;;7.73;5.37;;;12.80;55.90;;;;;;4998914;28;20188;-63
2023/01/02 13:22:58;;;;;;;5.67;4.50;;;12.90;56.00;;;;;;5017795;28;20196;-62
2023/01/02 13:25:24;;;;;;;6.23;4.30;;;12.90;56.50;;;;;;5017189;28;20234;-62